Time;durP1;ratioP1;P1;durP2;ratioP2;P2;SDS_P1;SDS_P2;PMS_P1;PMS_P2;Temp;Humidity;BMP_temperature;BMP_pressure;BME280_temperature;BME280_humidity;BME280_pressure;Samples;Min_cycle;Max_cycle;Signal;HPM_P1;HPM_P2
2024/04/07 00:00:26;;;;;;;2.78;0.93;;;18.40;81.10;;;;;;5048576;28;20583;-62
2024/04/07 00:03:12;;;;;;;5.10;2.50;;;18.40;81.90;;;;;;5053392;28;20602;-62
2024/04/07 00:05:57;;;;;;;4.90;1.25;;;18.30;82.30;;;;;;5044820;28;20041;-62
2024/04/07 00:08:46;;;;;;;3.95;1.20;;;18.20;83.40;;;;;;5048899;28;20032;-62
2024/04/07 00:11:32;;;;;;;2.58;0.90;;;18.20;82.20;;;;;;5045741;28;20107;-61
2024/04/07 00:14:19;;;;;;;3.27;1.30;;;18.10;82.80;;;;;;5052585;28;20032;-62
2024/04/07 00:17:05;;;;;;;5.43;1.25;;;18.20;81.40;;;;;;5045572;28;20041;-61
2024/04/07 00:19:51;;;;;;;8.55;1.40;;;18.20;81.80;;;;;;5036458;28;20098;-62
2024/04/07 00:22:37;;;;;;;5.38;1.27;;;18.30;81.40;;;;;;5034456;28;20490;-62
2024/04/07 00:25:23;;;;;;;7.45;1.60;;;18.20;82.50;;;;;;5039634;28;20037;-62
2024/04/07 00:28:08;;;;;;;6.13;1.38;;;18.20;82.30;;;;;;5036544;28;20029;-62
2024/04/07 00:30:54;;;;;;;3.65;1.50;;;18.20;81.70;;;;;;5034502;28;20112;-62
2024/04/07 00:33:41;;;;;;;3.42;1.08;;;18.20;83.20;;;;;;5036074;28;20032;-62
2024/04/07 00:36:27;;;;;;;5.97;1.33;;;18.10;84.10;;;;;;5033476;28;20033;-62
2024/04/07 00:39:12;;;;;;;8.57;1.63;;;18.00;83.40;;;;;;5037924;28;20083;-62
2024/04/07 00:41:58;;;;;;;7.43;1.42;;;18.00;83.00;;;;;;5036246;28;20064;-62
2024/04/07 00:44:45;;;;;;;2.70;0.82;;;17.90;83.40;;;;;;5039244;28;20684;-62
2024/04/07 00:47:31;;;;;;;4.78;0.98;;;17.90;83.30;;;;;;5031101;28;20502;-61
2024/04/07 00:50:18;;;;;;;5.45;1.20;;;17.90;83.70;;;;;;5036289;28;20040;-62
2024/04/07 00:53:04;;;;;;;;;;;17.90;84.10;;;;;;5033964;28;20379;-62
2024/04/07 00:55:50;;;;;;;6.03;1.23;;;17.80;83.90;;;;;;5040522;28;19908;-62
2024/04/07 00:58:36;;;;;;;7.78;1.13;;;17.80;83.40;;;;;;5043620;28;20033;-62
2024/04/07 01:01:22;;;;;;;11.18;1.33;;;17.80;84.00;;;;;;5040239;28;20033;-62
2024/04/07 01:04:08;;;;;;;5.22;1.25;;;17.80;83.00;;;;;;5043725;28;20048;-62
2024/04/07 01:06:54;;;;;;;4.93;1.25;;;17.80;84.40;;;;;;5043336;28;20051;-62
2024/04/07 01:09:41;;;;;;;3.57;1.03;;;17.80;82.10;;;;;;5044207;28;20033;-62
2024/04/07 01:12:35;;;;;;;3.83;1.13;;;17.90;82.30;;;;;;5044592;28;20774;-62
2024/04/07 01:15:21;;;;;;;5.10;1.67;;;18.00;81.50;;;;;;5042055;28;20597;-62
2024/04/07 01:18:07;;;;;;;6.45;1.00;;;17.90;82.30;;;;;;5041758;28;20048;-62
2024/04/07 01:20:54;;;;;;;4.67;1.30;;;17.90;82.50;;;;;;5043040;28;20033;-62
2024/04/07 01:23:40;;;;;;;6.25;1.30;;;17.80;84.00;;;;;;5039187;28;20780;-62
2024/04/07 01:26:26;;;;;;;9.68;1.63;;;17.70;83.40;;;;;;5039385;28;20108;-61
2024/04/07 01:29:12;;;;;;;9.95;1.50;;;17.70;84.90;;;;;;5041185;28;20029;-62
2024/04/07 01:31:58;;;;;;;2.00;0.98;;;17.60;84.60;;;;;;5041312;28;20033;-62
2024/04/07 01:34:44;;;;;;;3.45;1.17;;;17.60;84.40;;;;;;5043965;28;20029;-61
2024/04/07 01:37:30;;;;;;;3.40;1.08;;;17.60;84.60;;;;;;5040991;28;20449;-62
2024/04/07 01:40:16;;;;;;;4.28;1.00;;;17.50;85.00;;;;;;5041887;28;20089;-62
2024/04/07 01:43:01;;;;;;;5.55;1.00;;;17.50;84.60;;;;;;5042455;28;20040;-62
2024/04/07 01:45:47;;;;;;;2.25;1.17;;;17.50;85.50;;;;;;5042831;28;20116;-62
2024/04/07 01:48:33;;;;;;;1.88;0.98;;;17.30;88.20;;;;;;5043432;28;20037;-62
2024/04/07 01:51:19;;;;;;;8.23;1.25;;;17.20;88.70;;;;;;5041831;28;20029;-62
2024/04/07 01:54:05;;;;;;;3.85;1.45;;;17.10;87.00;;;;;;5039832;28;20032;-62
2024/04/07 01:56:51;;;;;;;5.60;1.08;;;17.00;89.50;;;;;;5041279;28;20683;-62
2024/04/07 01:59:37;;;;;;;5.40;1.00;;;16.90;89.70;;;;;;5041775;28;20051;-62
2024/04/07 02:02:23;;;;;;;3.47;2.05;;;16.90;90.20;;;;;;5032185;28;20036;-62
2024/04/07 02:05:09;;;;;;;4.85;0.88;;;16.80;90.20;;;;;;5043016;28;20401;-62
2024/04/07 02:07:55;;;;;;;11.40;1.33;;;16.80;90.60;;;;;;5034553;28;20414;-62
2024/04/07 02:10:51;;;;;;;4.43;1.55;;;16.80;90.40;;;;;;5033360;28;20111;-61
2024/04/07 02:13:37;;;;;;;9.60;2.03;;;16.80;90.70;;;;;;5043138;28;20033;-62
2024/04/07 02:16:23;;;;;;;9.32;1.15;;;16.70;91.10;;;;;;5041872;28;20075;-62
2024/04/07 02:19:11;;;;;;;3.88;1.40;;;16.80;90.70;;;;;;5040934;28;20139;-62
2024/04/07 02:21:57;;;;;;;6.07;1.25;;;16.70;91.30;;;;;;5039567;28;20091;-63
2024/04/07 02:24:43;;;;;;;5.20;1.00;;;16.70;90.40;;;;;;5043075;28;20677;-62
2024/04/07 02:27:29;;;;;;;9.85;1.80;;;16.60;91.80;;;;;;5041671;28;20280;-62
2024/04/07 02:30:15;;;;;;;2.95;1.00;;;16.60;90.70;;;;;;5041175;28;20413;-62
2024/04/07 02:33:04;;;;;;;6.88;0.77;;;16.60;92.70;;;;;;5036396;28;20681;-62
2024/04/07 02:35:50;;;;;;;10.00;1.00;;;16.40;93.40;;;;;;5040327;28;20028;-62
2024/04/07 02:38:36;;;;;;;6.55;1.02;;;16.30;93.50;;;;;;5041801;28;20042;-62
2024/04/07 02:41:22;;;;;;;7.40;1.57;;;16.20;92.60;;;;;;5035681;28;20045;-62
2024/04/07 02:44:07;;;;;;;5.13;1.13;;;16.30;91.70;;;;;;5041764;28;20151;-62
2024/04/07 02:49:58;;;;;;;6.45;1.17;;;16.20;95.60;;;;;;5040463;28;20542;-61
2024/04/07 02:52:44;;;;;;;6.40;1.08;;;16.10;93.00;;;;;;5038774;28;20090;-62
2024/04/07 02:55:30;;;;;;;5.75;1.23;;;16.20;93.30;;;;;;5039958;28;20709;-62
2024/04/07 02:58:15;;;;;;;8.98;1.45;;;16.20;92.70;;;;;;5041910;28;20591;-62
2024/04/07 03:01:05;;;;;;;4.70;1.15;;;16.20;91.50;;;;;;5042154;28;20099;-62
2024/04/07 03:03:51;;;;;;;6.82;1.27;;;16.30;92.60;;;;;;5039563;28;20048;-62
2024/04/07 03:06:37;;;;;;;8.20;1.20;;;16.20;93.50;;;;;;5038332;28;20024;-62
2024/04/07 03:09:23;;;;;;;4.95;1.17;;;16.30;94.90;;;;;;5041514;28;20033;-60
2024/04/07 03:12:09;;;;;;;8.02;1.23;;;16.30;92.20;;;;;;5042984;28;20544;-62
2024/04/07 03:14:55;;;;;;;10.15;2.38;;;16.40;92.30;;;;;;5036936;28;20037;-62
2024/04/07 03:17:43;;;;;;;6.82;1.67;;;16.50;92.50;;;;;;5041393;28;20044;-62
2024/04/07 03:20:31;;;;;;;13.43;1.70;;;16.50;92.40;;;;;;5039254;28;20079;-62
2024/04/07 03:23:17;;;;;;;9.43;1.38;;;16.50;92.40;;;;;;5040596;28;20036;-62
2024/04/07 03:26:03;;;;;;;5.35;1.50;;;16.50;93.30;;;;;;5041011;28;20037;-61
2024/04/07 03:28:49;;;;;;;4.32;1.02;;;16.40;93.30;;;;;;5040988;28;20028;-62
2024/04/07 03:31:35;;;;;;;4.40;1.02;;;16.30;94.00;;;;;;5040611;28;20033;-62
2024/04/07 03:34:25;;;;;;;7.77;1.33;;;16.30;93.70;;;;;;5039207;28;20087;-62
2024/04/07 03:37:11;;;;;;;8.52;1.20;;;16.20;95.20;;;;;;5040209;28;20061;-62
2024/04/07 03:39:56;;;;;;;8.10;1.23;;;16.20;95.20;;;;;;5039261;28;20389;-62
2024/04/07 03:42:43;;;;;;;10.77;1.55;;;16.10;95.20;;;;;;5040830;28;20085;-62
2024/04/07 03:45:28;;;;;;;4.87;1.23;;;16.10;94.70;;;;;;5038856;28;20033;-62
2024/04/07 03:48:14;;;;;;;7.13;1.20;;;16.10;95.20;;;;;;5033899;28;20056;-62
2024/04/07 03:51:00;;;;;;;5.83;1.30;;;16.30;94.80;;;;;;5041042;28;20104;-62
2024/04/07 03:53:46;;;;;;;9.43;1.55;;;16.30;94.80;;;;;;5039620;28;20025;-62
2024/04/07 03:56:32;;;;;;;9.15;1.92;;;16.30;95.10;;;;;;5044125;28;20033;-62
2024/04/07 03:59:18;;;;;;;10.73;1.40;;;16.20;96.00;;;;;;5045348;28;20112;-62
2024/04/07 04:02:04;;;;;;;6.10;1.10;;;16.10;95.60;;;;;;5042416;28;20060;-62
2024/04/07 04:05:00;;;;;;;11.75;1.83;;;16.10;95.10;;;;;;5042719;28;20033;-62
2024/04/07 04:07:46;;;;;;;8.23;1.65;;;16.10;95.40;;;;;;5037700;28;20044;-62
2024/04/07 04:10:36;;;;;;;5.00;1.35;;;16.10;95.50;;;;;;5043439;28;20283;-62
2024/04/07 04:13:22;;;;;;;8.35;1.10;;;16.10;95.90;;;;;;5041444;28;20069;-62
2024/04/07 04:16:08;;;;;;;8.43;1.02;;;16.10;96.10;;;;;;5039070;28;20037;-61
2024/04/07 04:18:54;;;;;;;7.75;1.17;;;16.10;96.00;;;;;;5044854;28;20642;-62
2024/04/07 04:21:41;;;;;;;7.78;1.30;;;16.00;96.60;;;;;;5044289;28;20039;-62
2024/04/07 04:24:27;;;;;;;6.30;1.30;;;16.10;96.70;;;;;;5040639;28;20048;-62
2024/04/07 04:27:12;;;;;;;9.73;1.63;;;16.10;96.70;;;;;;5044769;28;20039;-62
2024/04/07 04:29:58;;;;;;;6.10;1.63;;;16.10;96.00;;;;;;5040820;28;20141;-62
2024/04/07 04:32:47;;;;;;;6.63;1.30;;;16.10;96.90;;;;;;5043883;28;20067;-60
2024/04/07 04:35:33;;;;;;;7.43;1.40;;;16.00;97.60;;;;;;5044278;28;20029;-61
2024/04/07 04:38:19;;;;;;;7.57;1.25;;;15.90;97.40;;;;;;5040459;28;20131;-62
2024/04/07 04:41:05;;;;;;;5.97;1.20;;;15.90;97.80;;;;;;5043387;28;20056;-62
2024/04/07 04:43:51;;;;;;;12.97;1.73;;;16.00;97.40;;;;;;5041574;28;20040;-61
2024/04/07 04:46:40;;;;;;;3.55;1.40;;;16.00;97.10;;;;;;5041407;28;20072;-62
2024/04/07 04:49:26;;;;;;;4.97;1.50;;;16.00;98.00;;;;;;5042365;28;20683;-62
2024/04/07 04:52:12;;;;;;;8.13;1.88;;;16.10;98.10;;;;;;5044918;28;20032;-62
2024/04/07 04:54:58;;;;;;;7.22;1.55;;;16.10;97.60;;;;;;5041320;28;20032;-62
2024/04/07 04:57:47;;;;;;;6.53;1.63;;;16.00;98.00;;;;;;5041737;28;20028;-62
2024/04/07 05:00:33;;;;;;;8.02;1.58;;;16.10;98.70;;;;;;5043595;28;20041;-61
2024/04/07 05:03:19;;;;;;;6.75;1.20;;;16.00;99.40;;;;;;5041243;28;20123;-62
2024/04/07 05:06:13;;;;;;;9.80;1.67;;;15.90;99.80;;;;;;5043106;28;20037;-62
2024/04/07 05:08:59;;;;;;;11.75;1.58;;;15.90;99.80;;;;;;5045846;28;20029;-62
2024/04/07 05:11:44;;;;;;;8.80;1.83;;;15.90;99.90;;;;;;5045134;28;20032;-62
2024/04/07 05:14:30;;;;;;;12.80;1.52;;;15.90;99.90;;;;;;5041367;28;20020;-62
2024/04/07 05:17:16;;;;;;;8.23;1.80;;;15.90;99.90;;;;;;5042401;28;20037;-62
2024/04/07 05:20:04;;;;;;;9.30;1.75;;;15.80;99.90;;;;;;5037264;28;20037;-62
2024/04/07 05:22:53;;;;;;;5.18;1.52;;;15.80;99.90;;;;;;5044569;28;20497;-62
2024/04/07 05:25:38;;;;;;;6.22;1.75;;;15.80;99.90;;;;;;5034897;28;20047;-62
2024/04/07 05:28:26;;;;;;;8.13;1.80;;;15.80;99.90;;;;;;5040374;28;20044;-62
2024/04/07 05:31:12;;;;;;;7.75;1.45;;;15.70;99.90;;;;;;5044599;28;20064;-62
2024/04/07 05:33:58;;;;;;;5.85;1.38;;;15.80;99.90;;;;;;5043289;28;20108;-62
2024/04/07 05:36:44;;;;;;;8.63;2.25;;;15.80;99.90;;;;;;5043850;28;20049;-61
2024/04/07 05:39:30;;;;;;;8.65;1.45;;;15.80;99.90;;;;;;5045236;28;20044;-62
2024/04/07 05:42:16;;;;;;;14.45;2.13;;;15.80;99.90;;;;;;5042414;28;20033;-62
2024/04/07 05:45:03;;;;;;;6.20;2.05;;;15.80;99.90;;;;;;5040001;28;20685;-62
2024/04/07 05:47:52;;;;;;;6.45;1.90;;;15.80;99.90;;;;;;5040370;28;20076;-62
2024/04/07 05:50:38;;;;;;;13.13;1.35;;;15.90;99.90;;;;;;5041191;28;20045;-62
2024/04/07 05:53:24;;;;;;;6.95;1.98;;;15.90;99.90;;;;;;5044559;28;20967;-62
2024/04/07 05:56:13;;;;;;;11.10;2.20;;;15.90;99.90;;;;;;5040096;28;20029;-61
2024/04/07 05:58:59;;;;;;;10.75;2.45;;;16.00;99.90;;;;;;5043972;28;20036;-62
2024/04/07 06:01:46;;;;;;;6.90;1.45;;;16.10;99.90;;;;;;5038057;28;20061;-62
2024/04/07 06:04:32;;;;;;;5.78;2.05;;;16.20;99.90;;;;;;5037763;28;20062;-62
2024/04/07 06:07:18;;;;;;;4.32;1.70;;;16.20;99.90;;;;;;5041540;28;20406;-62
2024/04/07 06:10:04;;;;;;;6.22;1.60;;;16.30;99.90;;;;;;5037354;28;20063;-62
2024/04/07 06:12:51;;;;;;;7.40;2.27;;;16.30;99.90;;;;;;5043076;28;20036;-62
2024/04/07 06:15:37;;;;;;;13.98;1.80;;;16.40;99.90;;;;;;5042601;28;20108;-62
2024/04/07 06:18:24;;;;;;;6.78;2.28;;;16.40;99.90;;;;;;5041061;28;20071;-62
2024/04/07 06:21:10;;;;;;;;;;;16.40;99.90;;;;;;5043658;28;20104;-62
2024/04/07 06:23:56;;;;;;;7.78;1.80;;;16.50;99.90;;;;;;5043441;28;19909;-62
2024/04/07 06:26:42;;;;;;;10.07;2.10;;;16.50;99.90;;;;;;5039254;28;20167;-62
2024/04/07 06:29:28;;;;;;;12.60;2.40;;;16.60;99.90;;;;;;5039024;28;20659;-62
2024/04/07 06:32:14;;;;;;;10.82;2.00;;;16.50;99.90;;;;;;5038311;28;20029;-62
2024/04/07 06:35:00;;;;;;;12.63;2.47;;;16.60;99.90;;;;;;5041327;28;20107;-62
2024/04/07 06:37:45;;;;;;;7.18;1.85;;;16.90;99.90;;;;;;5040936;28;21116;-62
2024/04/07 06:40:31;;;;;;;7.25;1.85;;;17.00;99.90;;;;;;5035550;28;20494;-61
2024/04/07 06:43:17;;;;;;;13.85;2.08;;;17.20;99.90;;;;;;5040311;28;20036;-62
2024/04/07 06:46:03;;;;;;;12.85;2.67;;;17.30;99.90;;;;;;5037895;28;20041;-62
2024/04/07 06:48:49;;;;;;;7.60;2.25;;;17.10;99.90;;;;;;5044133;28;20033;-62
2024/04/07 06:51:35;;;;;;;10.50;2.17;;;17.30;99.90;;;;;;5039635;28;20041;-62
2024/04/07 06:54:21;;;;;;;8.32;1.98;;;17.20;99.90;;;;;;5042841;28;20438;-62
2024/04/07 06:57:07;;;;;;;7.35;1.67;;;17.10;99.90;;;;;;5040962;28;20032;-62
2024/04/07 06:59:55;;;;;;;16.00;2.60;;;17.20;99.90;;;;;;5037878;28;20701;-62
2024/04/07 07:02:41;;;;;;;12.52;1.85;;;17.10;99.90;;;;;;5040323;28;20033;-62
2024/04/07 07:05:27;;;;;;;8.38;2.22;;;17.00;99.90;;;;;;5037199;28;20032;-62
2024/04/07 07:08:13;;;;;;;12.90;2.88;;;17.10;99.90;;;;;;5036365;28;20087;-62
2024/04/07 07:10:59;;;;;;;6.85;1.92;;;17.20;99.90;;;;;;5040889;28;20109;-62
2024/04/07 07:13:45;;;;;;;15.77;2.53;;;17.50;99.90;;;;;;5043871;28;20215;-62
2024/04/07 07:16:31;;;;;;;14.40;2.67;;;17.90;99.90;;;;;;5038872;28;20395;-62
2024/04/07 07:19:19;;;;;;;7.57;2.17;;;17.90;99.90;;;;;;5038444;28;20029;-61
2024/04/07 07:22:04;;;;;;;7.28;1.90;;;17.90;99.90;;;;;;5041801;28;20033;-62
2024/04/07 07:24:50;;;;;;;5.85;2.00;;;18.00;99.90;;;;;;5038085;28;20041;-62
2024/04/07 07:27:36;;;;;;;10.73;2.20;;;18.00;99.90;;;;;;5040539;28;20033;-62
2024/04/07 07:30:22;;;;;;;13.27;2.92;;;17.80;99.90;;;;;;5044313;28;20108;-62
2024/04/07 07:33:08;;;;;;;12.88;2.33;;;17.50;99.90;;;;;;5042465;28;20024;-62
2024/04/07 07:35:53;;;;;;;11.02;2.30;;;17.40;99.90;;;;;;5046071;28;20039;-62
2024/04/07 07:38:39;;;;;;;12.45;1.83;;;17.30;99.90;;;;;;5045715;28;20230;-62
2024/04/07 07:41:25;;;;;;;5.78;1.85;;;17.20;99.90;;;;;;5046069;28;20040;-62
2024/04/07 07:44:11;;;;;;;6.78;1.45;;;17.10;99.90;;;;;;5045002;28;20040;-61
2024/04/07 07:46:57;;;;;;;7.93;1.75;;;17.10;99.90;;;;;;5038509;28;20451;-61
2024/04/07 07:49:43;;;;;;;5.32;1.80;;;17.00;99.90;;;;;;5042749;28;20032;-61
2024/04/07 07:52:29;;;;;;;5.03;1.58;;;16.90;99.90;;;;;;5040909;28;20432;-61
2024/04/07 07:55:16;;;;;;;4.82;1.77;;;16.80;99.90;;;;;;5045678;28;20047;-61
2024/04/07 07:58:02;;;;;;;11.25;2.08;;;16.70;99.90;;;;;;5044106;28;20041;-61
2024/04/07 08:00:48;;;;;;;10.17;1.80;;;16.50;99.90;;;;;;5041695;28;20558;-61
2024/04/07 08:03:35;;;;;;;13.75;2.30;;;16.50;99.90;;;;;;5043476;28;20957;-61
2024/04/07 08:06:20;;;;;;;;;;;16.50;99.90;;;;;;5043932;28;20525;-61
2024/04/07 08:09:06;;;;;;;8.77;1.92;;;16.50;99.90;;;;;;5044025;28;19972;-61
2024/04/07 08:11:53;;;;;;;5.63;1.88;;;16.50;99.90;;;;;;5043272;28;20394;-61
2024/04/07 08:14:39;;;;;;;;;;;16.50;99.90;;;;;;5040716;28;20037;-61
2024/04/07 08:17:25;;;;;;;6.10;1.55;;;16.60;99.90;;;;;;5044758;28;20273;-61
2024/04/07 08:20:11;;;;;;;13.10;1.70;;;16.70;99.90;;;;;;5038645;28;20039;-61
2024/04/07 08:22:57;;;;;;;8.27;1.70;;;16.80;99.90;;;;;;5044843;28;20044;-61
2024/04/07 08:25:44;;;;;;;7.70;1.75;;;17.00;99.90;;;;;;5042468;28;20064;-60
2024/04/07 08:28:30;;;;;;;15.30;1.60;;;17.20;99.90;;;;;;5045096;28;20040;-61
2024/04/07 08:31:16;;;;;;;12.03;1.30;;;17.30;99.90;;;;;;5040236;28;20382;-61
2024/04/07 08:34:02;;;;;;;6.45;1.58;;;17.50;99.90;;;;;;5044229;28;20247;-61
2024/04/07 08:36:48;;;;;;;12.15;1.60;;;17.60;99.90;;;;;;5042885;28;20454;-59
2024/04/07 08:39:34;;;;;;;6.35;1.30;;;17.80;99.90;;;;;;5040810;28;20494;-61
2024/04/07 08:42:21;;;;;;;3.20;0.93;;;17.80;99.90;;;;;;5039948;28;20041;-61
2024/04/07 08:45:08;;;;;;;6.78;1.23;;;17.90;99.90;;;;;;5041876;28;20032;-61
2024/04/07 08:47:55;;;;;;;5.72;1.48;;;18.00;99.90;;;;;;5039488;28;23432;-61
2024/04/07 08:50:41;;;;;;;6.00;1.23;;;18.00;99.90;;;;;;5043760;28;20036;-59
2024/04/07 08:53:27;;;;;;;5.32;2.10;;;18.20;99.90;;;;;;5041230;28;20190;-61
2024/04/07 08:56:13;;;;;;;6.72;1.45;;;18.50;99.90;;;;;;5043948;28;20666;-61
2024/04/07 08:59:01;;;;;;;8.48;1.38;;;18.70;99.90;;;;;;5042032;28;20566;-61
2024/04/07 09:01:48;;;;;;;6.07;1.30;;;18.80;99.70;;;;;;5040317;28;20526;-61
2024/04/07 09:04:34;;;;;;;6.63;1.38;;;18.80;99.90;;;;;;5040799;28;20047;-61
2024/04/07 09:07:20;;;;;;;4.15;0.90;;;18.70;99.90;;;;;;5040431;28;20139;-61
2024/04/07 09:10:06;;;;;;;5.10;1.13;;;18.80;99.90;;;;;;5044034;28;20174;-61
2024/04/07 09:12:52;;;;;;;4.90;1.20;;;18.80;98.50;;;;;;5043976;28;20029;-61
2024/04/07 09:15:38;;;;;;;3.28;0.70;;;18.80;98.00;;;;;;5043494;28;20037;-61
2024/04/07 09:18:24;;;;;;;4.95;0.85;;;18.90;97.70;;;;;;5042766;28;20033;-61
2024/04/07 09:21:21;;;;;;;5.55;0.90;;;19.10;95.80;;;;;;5033398;28;20472;-61
2024/04/07 09:24:09;;;;;;;5.07;0.70;;;19.30;94.50;;;;;;5047483;28;20033;-61
2024/04/07 09:26:56;;;;;;;11.45;0.93;;;19.50;94.00;;;;;;5041553;28;20744;-60
2024/04/07 09:29:42;;;;;;;3.10;0.75;;;19.40;92.20;;;;;;5043928;28;20080;-61
2024/04/07 09:32:28;;;;;;;4.40;1.08;;;19.50;93.70;;;;;;5042326;28;20114;-61
2024/04/07 09:35:14;;;;;;;4.13;1.15;;;19.50;92.20;;;;;;5044331;28;20079;-61
2024/04/07 09:37:59;;;;;;;8.17;0.97;;;19.60;93.10;;;;;;5044747;28;20530;-61
2024/04/07 09:40:46;;;;;;;3.47;0.95;;;19.70;92.20;;;;;;5043633;28;20122;-61
2024/04/07 09:43:35;;;;;;;5.07;1.33;;;19.90;92.50;;;;;;5037032;28;20064;-61
2024/04/07 09:46:22;;;;;;;5.53;1.17;;;19.90;92.50;;;;;;5044116;28;20033;-61
2024/04/07 09:49:09;;;;;;;4.70;1.05;;;20.00;94.40;;;;;;5042608;28;20032;-61
2024/04/07 09:51:56;;;;;;;4.93;1.48;;;20.00;92.40;;;;;;5038595;28;20143;-61
2024/04/07 09:54:48;;;;;;;6.25;0.90;;;20.00;91.30;;;;;;5039833;28;20045;-60
2024/04/07 09:57:33;;;;;;;4.18;0.85;;;20.10;93.30;;;;;;5043753;28;20044;-61
2024/04/07 10:00:20;;;;;;;6.60;0.98;;;20.30;92.10;;;;;;5041765;28;20039;-61
2024/04/07 10:03:07;;;;;;;4.20;1.20;;;20.10;90.40;;;;;;5043349;28;20029;-60
2024/04/07 10:05:53;;;;;;;2.70;0.85;;;20.20;89.50;;;;;;5034753;28;20048;-61
2024/04/07 10:08:39;;;;;;;5.17;0.93;;;20.20;90.90;;;;;;5042297;28;20033;-61
2024/04/07 10:11:25;;;;;;;4.53;1.17;;;20.10;88.30;;;;;;5043143;28;20033;-61
2024/04/07 10:14:17;;;;;;;2.60;0.70;;;20.10;89.10;;;;;;5037502;28;20072;-61
2024/04/07 10:17:03;;;;;;;3.50;0.75;;;20.20;88.40;;;;;;5043210;28;20043;-61
2024/04/07 10:19:50;;;;;;;3.70;0.80;;;20.40;87.80;;;;;;5039489;28;20032;-61
2024/04/07 10:22:37;;;;;;;2.45;0.65;;;20.40;87.60;;;;;;5038675;28;20106;-61
2024/04/07 10:25:23;;;;;;;2.67;0.70;;;20.50;86.60;;;;;;5043991;28;20068;-60
2024/04/07 10:28:09;;;;;;;4.90;0.80;;;20.40;88.20;;;;;;5044353;28;20082;-60
2024/04/07 10:30:58;;;;;;;3.97;0.73;;;20.30;86.40;;;;;;5040031;28;20071;-60
2024/04/07 10:33:48;;;;;;;1.75;0.85;;;20.40;88.70;;;;;;5039439;28;20036;-61
2024/04/07 10:36:34;;;;;;;5.15;1.25;;;20.60;87.60;;;;;;5043767;28;20041;-60
2024/04/07 10:39:21;;;;;;;5.40;1.45;;;20.60;85.80;;;;;;5042935;28;20495;-60
2024/04/07 10:42:07;;;;;;;;;;;20.60;88.50;;;;;;5036550;28;20120;-60
2024/04/07 10:44:53;;;;;;;1.98;0.65;;;20.60;87.10;;;;;;5034678;28;20355;-60
2024/04/07 10:47:39;;;;;;;9.23;1.03;;;20.70;88.70;;;;;;5042899;28;20574;-60
2024/04/07 10:50:25;;;;;;;6.30;1.30;;;20.70;86.70;;;;;;5041366;28;20139;-61
2024/04/07 10:53:14;;;;;;;5.65;0.80;;;20.80;88.40;;;;;;5036190;28;20459;-60
2024/04/07 10:56:00;;;;;;;4.90;1.00;;;20.80;87.70;;;;;;5037908;28;20505;-60
2024/04/07 10:58:46;;;;;;;3.30;0.77;;;20.90;87.30;;;;;;5041945;28;20029;-60
2024/04/07 11:01:33;;;;;;;4.65;1.00;;;20.90;87.50;;;;;;5035512;28;20485;-60
2024/04/07 11:04:18;;;;;;;2.08;0.70;;;20.80;86.50;;;;;;5035216;28;20554;-60
2024/04/07 11:07:05;;;;;;;2.38;0.68;;;20.80;87.20;;;;;;5043531;28;20044;-60
2024/04/07 11:09:53;;;;;;;7.60;1.25;;;20.80;89.10;;;;;;5038894;28;20037;-60
2024/04/07 11:12:43;;;;;;;3.22;0.85;;;20.90;88.40;;;;;;5038098;28;20048;-60
2024/04/07 11:15:30;;;;;;;2.13;0.60;;;20.80;86.70;;;;;;5037427;28;20053;-60
2024/04/07 11:18:17;;;;;;;;;;;20.90;88.00;;;;;;5035892;28;20053;-60
2024/04/07 11:21:04;;;;;;;3.97;1.20;;;21.00;90.20;;;;;;5041405;28;21193;-60
2024/04/07 11:23:50;;;;;;;3.45;0.70;;;21.10;87.90;;;;;;5038226;28;20044;-60
2024/04/07 11:26:36;;;;;;;2.53;0.63;;;21.10;87.80;;;;;;5038160;28;20115;-60
2024/04/07 11:29:22;;;;;;;3.95;0.68;;;21.30;88.50;;;;;;5034911;28;20044;-60
2024/04/07 11:32:12;;;;;;;6.25;0.80;;;21.50;88.20;;;;;;5035415;28;20038;-60
2024/04/07 11:34:59;;;;;;;4.03;1.10;;;21.60;88.80;;;;;;5032486;28;20474;-61
2024/04/07 11:37:45;;;;;;;3.13;1.02;;;21.50;86.80;;;;;;5035250;28;20032;-61
2024/04/07 11:40:31;;;;;;;2.72;1.00;;;21.40;87.50;;;;;;5039485;28;20337;-61
2024/04/07 11:43:17;;;;;;;5.00;1.10;;;21.50;90.00;;;;;;5043723;28;20067;-61
2024/04/07 11:46:03;;;;;;;14.52;1.65;;;21.60;88.30;;;;;;5040117;28;20293;-61
2024/04/07 11:48:49;;;;;;;5.25;1.60;;;21.60;88.10;;;;;;5040246;28;20025;-60
2024/04/07 11:51:35;;;;;;;7.60;1.60;;;21.40;86.00;;;;;;5039406;28;20116;-60
2024/04/07 11:54:21;;;;;;;4.80;1.50;;;21.30;88.00;;;;;;5043665;28;20029;-61
2024/04/07 11:57:07;;;;;;;4.38;1.38;;;21.30;88.50;;;;;;5038508;28;20041;-60
2024/04/07 11:59:53;;;;;;;9.73;1.45;;;21.30;89.40;;;;;;5038192;28;20049;-60
2024/04/07 12:02:39;;;;;;;4.88;1.35;;;21.40;90.00;;;;;;5042869;28;20083;-60
2024/04/07 12:05:24;;;;;;;8.55;2.00;;;21.50;88.60;;;;;;5039218;28;20044;-60
2024/04/07 12:08:10;;;;;;;4.90;1.00;;;21.60;88.80;;;;;;5040718;28;20060;-60
2024/04/07 12:10:56;;;;;;;6.77;1.77;;;21.60;88.30;;;;;;5040988;28;20030;-60
2024/04/07 12:13:43;;;;;;;5.18;1.48;;;21.40;87.20;;;;;;5040787;28;20032;-60
2024/04/07 12:16:29;;;;;;;5.00;1.63;;;21.50;88.50;;;;;;5042290;28;20118;-60
2024/04/07 12:19:15;;;;;;;7.22;1.13;;;21.50;88.40;;;;;;5038447;28;20382;-60
2024/04/07 12:22:08;;;;;;;5.82;1.52;;;21.40;88.40;;;;;;5037393;28;20410;-60
2024/04/07 12:24:54;;;;;;;10.75;1.33;;;21.20;90.10;;;;;;5038388;28;20043;-60
2024/04/07 12:27:40;;;;;;;7.43;1.60;;;21.20;88.30;;;;;;5045739;28;20037;-60
2024/04/07 12:30:26;;;;;;;10.77;2.00;;;21.20;90.20;;;;;;5042388;28;20044;-61
2024/04/07 12:33:12;;;;;;;3.13;1.33;;;21.30;90.40;;;;;;5040931;28;20119;-61
2024/04/07 12:35:58;;;;;;;11.13;2.10;;;21.40;90.30;;;;;;5042816;28;20057;-60
2024/04/07 12:38:43;;;;;;;8.77;1.53;;;21.50;88.80;;;;;;5043887;28;20139;-61
2024/04/07 12:41:29;;;;;;;5.32;1.38;;;21.80;89.70;;;;;;5039946;28;20693;-61
2024/04/07 12:44:17;;;;;;;7.23;1.57;;;21.80;87.70;;;;;;5042440;28;20037;-61
2024/04/07 12:47:03;;;;;;;6.13;1.40;;;21.90;88.30;;;;;;5041635;28;20369;-61
2024/04/07 12:49:49;;;;;;;8.85;1.50;;;21.80;87.70;;;;;;5041785;28;20025;-61
2024/04/07 12:52:37;;;;;;;7.23;1.70;;;21.70;87.90;;;;;;5040942;28;20208;-61
2024/04/07 12:55:23;;;;;;;7.20;1.67;;;21.70;88.60;;;;;;5038362;28;20032;-61
2024/04/07 12:58:09;;;;;;;7.97;1.58;;;21.50;87.10;;;;;;5040393;28;20056;-61
2024/04/07 13:00:54;;;;;;;4.33;1.30;;;21.40;89.70;;;;;;5036843;28;20191;-61
2024/04/07 13:03:40;;;;;;;5.30;1.30;;;21.50;88.70;;;;;;5038913;28;20087;-61
2024/04/07 13:06:27;;;;;;;4.17;1.60;;;21.50;89.00;;;;;;5041617;28;20037;-61
2024/04/07 13:09:12;;;;;;;9.13;1.73;;;21.60;88.80;;;;;;5039893;28;20132;-60
2024/04/07 13:11:58;;;;;;;6.90;1.83;;;21.70;88.90;;;;;;5039565;28;20033;-60
2024/04/07 13:14:44;;;;;;;5.88;1.73;;;21.40;88.40;;;;;;5045325;28;20494;-60
2024/04/07 13:17:30;;;;;;;12.23;2.75;;;21.20;89.80;;;;;;5041687;28;20033;-61
2024/04/07 13:20:16;;;;;;;6.68;1.50;;;21.30;90.20;;;;;;5044919;28;20032;-60
2024/04/07 13:23:03;;;;;;;8.33;1.73;;;21.60;90.00;;;;;;5042184;22;20060;-60
2024/04/07 13:25:49;;;;;;;6.85;1.58;;;21.70;88.90;;;;;;5003705;28;20347;-61
2024/04/07 13:28:35;;;;;;;7.65;2.17;;;21.70;89.60;;;;;;5000058;28;20124;-61
2024/04/07 13:31:21;;;;;;;5.72;1.33;;;21.90;88.60;;;;;;5004607;28;20056;-60
2024/04/07 13:34:07;;;;;;;11.68;2.28;;;21.80;87.80;;;;;;5004524;28;20514;-61
2024/04/07 13:36:53;;;;;;;10.05;1.85;;;21.70;86.10;;;;;;5004366;28;20088;-60
2024/04/07 13:39:38;;;;;;;6.35;1.50;;;21.70;90.60;;;;;;5004812;28;20033;-60
2024/04/07 13:42:24;;;;;;;8.52;1.45;;;21.60;89.70;;;;;;5003223;28;20033;-60
2024/04/07 13:45:11;;;;;;;4.68;1.40;;;21.50;89.20;;;;;;5003600;28;20122;-61
2024/04/07 13:47:57;;;;;;;9.52;1.63;;;21.60;90.00;;;;;;5001435;28;20033;-61
2024/04/07 13:50:46;;;;;;;6.75;1.35;;;21.70;90.00;;;;;;5004300;28;20600;-61
2024/04/07 13:53:32;;;;;;;11.55;2.47;;;21.60;88.90;;;;;;5003864;28;20062;-60
2024/04/07 13:56:18;;;;;;;10.88;1.70;;;21.60;90.10;;;;;;5002031;28;20042;-60
2024/04/07 13:59:04;;;;;;;10.13;2.08;;;21.40;89.10;;;;;;5003789;28;20085;-60
2024/04/07 14:01:50;;;;;;;6.57;1.45;;;21.30;90.60;;;;;;5003925;28;20040;-60
2024/04/07 14:04:35;;;;;;;9.40;1.52;;;21.40;90.00;;;;;;5002350;28;20041;-60
2024/04/07 14:07:23;;;;;;;8.80;1.85;;;21.40;90.80;;;;;;5004325;28;20037;-60
2024/04/07 14:10:10;;;;;;;7.07;1.60;;;21.40;90.50;;;;;;5000768;28;20045;-61
2024/04/07 14:12:55;;;;;;;13.25;1.80;;;21.60;90.40;;;;;;4988395;28;20072;-60
2024/04/07 14:15:41;;;;;;;7.95;1.75;;;21.70;90.40;;;;;;5004144;28;20035;-61
2024/04/07 14:18:27;;;;;;;19.23;2.50;;;21.60;90.00;;;;;;5003428;28;20026;-61
2024/04/07 14:21:13;;;;;;;8.48;2.40;;;21.50;89.40;;;;;;5003334;28;20034;-61
2024/04/07 14:23:59;;;;;;;7.60;2.20;;;21.30;90.70;;;;;;5002674;28;20045;-60
2024/04/07 14:26:45;;;;;;;9.98;1.67;;;21.30;90.40;;;;;;5003813;28;20474;-61